Time;durP1;ratioP1;P1;durP2;ratioP2;P2;SDS_P1;SDS_P2;PMS_P1;PMS_P2;Temp;Humidity;BMP_temperature;BMP_pressure;BME280_temperature;BME280_humidity;BME280_pressure;Samples;Min_cycle;Max_cycle;Signal;HPM_P1;HPM_P2
2022/11/03 00:01:41;;;;;;;13.70;5.35;;;6.50;99.90;;;;;;5098506;28;20024;-82
2022/11/03 00:04:09;;;;;;;10.95;5.85;;;6.50;99.90;;;;;;5112177;28;20081;-79
2022/11/03 00:06:35;;;;;;;19.83;6.78;;;6.50;99.90;;;;;;5100634;28;20038;-82
2022/11/03 00:09:03;;;;;;;11.02;5.63;;;6.40;99.90;;;;;;5095433;28;20050;-80
2022/11/03 00:11:32;;;;;;;10.48;5.50;;;6.40;99.90;;;;;;5095018;28;20028;-81
2022/11/03 00:13:58;;;;;;;11.18;5.78;;;6.40;99.90;;;;;;5095213;28;20028;-82
2022/11/03 00:16:24;;;;;;;14.68;6.43;;;6.40;99.90;;;;;;5072759;28;20039;-82
2022/11/03 00:18:50;;;;;;;10.38;5.18;;;6.40;99.90;;;;;;5095372;28;20040;-82
2022/11/03 00:21:16;;;;;;;15.23;6.00;;;6.30;99.90;;;;;;5090569;28;20141;-83
2022/11/03 00:23:43;;;;;;;10.85;5.63;;;6.30;99.90;;;;;;5095543;28;20023;-83
2022/11/03 00:26:13;;;;;;;18.45;6.15;;;6.20;99.90;;;;;;5076205;28;20086;-82
2022/11/03 00:28:40;;;;;;;17.35;6.15;;;6.20;99.90;;;;;;5084799;28;20484;-82
2022/11/03 00:31:11;;;;;;;13.88;5.88;;;6.20;99.90;;;;;;5086929;28;20127;-81
2022/11/03 00:33:38;;;;;;;12.45;6.30;;;6.20;99.90;;;;;;5077116;28;20016;-85
2022/11/03 00:36:05;;;;;;;13.98;6.03;;;6.10;99.90;;;;;;5093332;28;20080;-81
2022/11/03 00:38:31;;;;;;;11.77;5.63;;;6.10;99.90;;;;;;5095304;28;20020;-85
2022/11/03 00:41:01;;;;;;;23.25;7.22;;;6.10;99.90;;;;;;5094819;28;20102;-84
2022/11/03 00:43:29;;;;;;;18.88;6.68;;;6.10;99.90;;;;;;5094487;28;20146;-79
2022/11/03 00:45:55;;;;;;;20.33;7.32;;;6.20;99.90;;;;;;5090136;28;20420;-78
2022/11/03 00:48:30;;;;;;;17.27;7.75;;;6.20;99.90;;;;;;5092611;28;20020;-80
2022/11/03 00:51:17;;;;;;;26.45;8.02;;;6.20;99.90;;;;;;5094107;28;20026;-80
2022/11/03 00:53:50;;;;;;;16.40;7.85;;;6.20;99.90;;;;;;5094500;28;20024;-80
2022/11/03 00:56:17;;;;;;;12.75;7.68;;;6.30;99.90;;;;;;5092877;28;20044;-80
2022/11/03 00:58:43;;;;;;;23.60;8.65;;;6.30;99.90;;;;;;5093972;28;20024;-83
2022/11/03 01:01:14;;;;;;;19.35;7.90;;;6.30;99.90;;;;;;5091867;28;20039;-84
2022/11/03 01:06:48;;;;;;;17.92;7.72;;;6.30;99.90;;;;;;5086932;28;20610;-85
2022/11/03 01:06:49;;;;;;;14.10;6.70;;;6.20;99.90;;;;;;5091965;28;20028;-84
2022/11/03 01:09:36;;;;;;;15.35;7.03;;;6.20;99.90;;;;;;5090821;28;20028;-79
2022/11/03 01:12:05;;;;;;;13.75;7.60;;;6.10;99.90;;;;;;5089782;28;20036;-79
2022/11/03 01:14:43;;;;;;;12.70;7.20;;;6.00;99.90;;;;;;5091587;28;20020;-80
2022/11/03 01:17:11;;;;;;;21.60;8.63;;;5.90;99.90;;;;;;5090579;28;20042;-79
2022/11/03 01:19:37;;;;;;;18.17;8.75;;;5.90;99.90;;;;;;5090222;28;20027;-81
2022/11/03 01:22:04;;;;;;;15.50;7.82;;;5.90;99.90;;;;;;5090526;28;20081;-80
2022/11/03 01:24:29;;;;;;;18.90;8.57;;;5.90;99.90;;;;;;5092357;28;20024;-84
2022/11/03 01:26:55;;;;;;;20.80;8.27;;;5.90;99.90;;;;;;5092694;28;20047;-81
2022/11/03 01:29:21;;;;;;;16.40;7.95;;;5.90;99.90;;;;;;5091216;28;20027;-81
2022/11/03 01:31:47;;;;;;;17.83;7.82;;;5.90;99.90;;;;;;5092576;28;20485;-81
2022/11/03 01:34:18;;;;;;;15.80;7.78;;;5.90;99.90;;;;;;5091345;28;20020;-80
2022/11/03 01:36:44;;;;;;;19.63;7.57;;;6.00;99.90;;;;;;5089926;28;20499;-80
2022/11/03 01:39:12;;;;;;;16.05;7.63;;;5.90;99.90;;;;;;5086986;28;20028;-79
2022/11/03 01:41:38;;;;;;;14.15;7.35;;;5.90;99.90;;;;;;5092296;28;20024;-80
2022/11/03 01:44:07;;;;;;;17.35;8.07;;;5.90;99.90;;;;;;5091586;28;20148;-81
2022/11/03 01:46:47;;;;;;;15.60;7.88;;;5.80;99.90;;;;;;5074230;28;20034;-82
2022/11/03 01:49:13;;;;;;;17.95;7.60;;;5.80;99.90;;;;;;5072396;28;20082;-79
2022/11/03 01:51:39;;;;;;;19.25;8.82;;;5.80;99.90;;;;;;5092609;28;20489;-79
2022/11/03 01:54:11;;;;;;;16.52;7.63;;;5.80;99.90;;;;;;5091623;28;20069;-80
2022/11/03 01:56:42;;;;;;;17.52;7.70;;;5.80;99.90;;;;;;5091055;28;20416;-80
2022/11/03 01:59:09;;;;;;;14.38;7.35;;;5.80;99.90;;;;;;5089174;28;20050;-81
2022/11/03 02:01:35;;;;;;;17.58;8.02;;;5.80;99.90;;;;;;5074090;28;20123;-81
2022/11/03 02:04:11;;;;;;;14.60;7.30;;;5.70;99.90;;;;;;5091973;28;20016;-83
2022/11/03 02:06:37;;;;;;;15.27;7.57;;;5.70;99.90;;;;;;5092033;28;20028;-83
2022/11/03 02:09:06;;;;;;;14.27;8.30;;;5.70;99.90;;;;;;5091287;28;20484;-78
2022/11/03 02:14:17;;;;;;;17.77;7.95;;;5.60;99.90;;;;;;5088674;28;20525;-81
2022/11/03 02:16:52;;;;;;;16.17;7.85;;;5.60;99.90;;;;;;5086566;28;20119;-79
2022/11/03 02:19:42;;;;;;;20.67;8.00;;;5.50;99.90;;;;;;5091420;28;20027;-82
2022/11/03 02:22:41;;;;;;;13.55;7.88;;;5.40;99.90;;;;;;5089997;28;20469;-82
2022/11/03 02:25:17;;;;;;;17.42;7.85;;;5.40;99.90;;;;;;5089088;28;20056;-83
2022/11/03 02:27:43;;;;;;;13.90;7.07;;;5.40;99.90;;;;;;5089285;28;20053;-77
2022/11/03 02:30:10;;;;;;;16.48;7.63;;;5.30;99.90;;;;;;5089904;28;20481;-79
2022/11/03 02:33:01;;;;;;;17.17;7.70;;;5.30;99.90;;;;;;5086743;28;20031;-77
2022/11/03 02:35:35;;;;;;;12.82;7.35;;;5.20;99.90;;;;;;5088245;28;20044;-77
2022/11/03 02:38:04;;;;;;;15.48;8.10;;;5.20;99.90;;;;;;5088876;28;20495;-78
2022/11/03 02:40:49;;;;;;;12.45;7.45;;;5.10;99.90;;;;;;5090762;28;20028;-77
2022/11/03 02:43:17;;;;;;;20.95;9.05;;;5.10;99.90;;;;;;5089929;28;20031;-78
2022/11/03 02:45:46;;;;;;;17.70;7.93;;;5.10;99.90;;;;;;5090834;28;20020;-75
2022/11/03 02:48:14;;;;;;;21.85;8.30;;;5.00;99.90;;;;;;5087145;28;20465;-80
2022/11/03 02:50:40;;;;;;;22.30;9.20;;;5.00;99.90;;;;;;5088041;28;20012;-80
2022/11/03 02:53:10;;;;;;;17.25;8.13;;;5.00;99.90;;;;;;5090955;28;20020;-80
2022/11/03 02:55:47;;;;;;;14.80;8.77;;;5.00;99.90;;;;;;5090693;28;20024;-82
2022/11/03 02:58:26;;;;;;;19.05;8.18;;;5.00;99.90;;;;;;5072396;28;20286;-81
2022/11/03 03:01:17;;;;;;;11.88;7.68;;;5.00;99.90;;;;;;5071218;28;20016;-81
2022/11/03 03:03:46;;;;;;;18.58;9.02;;;4.90;99.90;;;;;;5082235;28;20040;-81
2022/11/03 03:06:36;;;;;;;22.30;9.68;;;4.90;99.90;;;;;;5085794;28;20058;-80
2022/11/03 03:09:06;;;;;;;20.88;8.40;;;4.90;99.90;;;;;;5073281;28;20028;-77
2022/11/03 03:11:37;;;;;;;21.45;9.30;;;4.90;99.90;;;;;;5090964;28;20016;-76
2022/11/03 03:14:13;;;;;;;26.88;9.88;;;4.90;99.90;;;;;;5088495;28;20031;-79
2022/11/03 03:16:48;;;;;;;21.15;8.40;;;4.90;99.90;;;;;;5091374;28;20046;-77
2022/11/03 03:19:23;;;;;;;22.30;8.75;;;5.00;99.90;;;;;;5090301;28;20035;-79
2022/11/03 03:21:54;;;;;;;18.10;8.13;;;5.00;99.90;;;;;;5089391;28;20016;-79
2022/11/03 03:24:22;;;;;;;;;;;5.10;99.90;;;;;;5085918;28;20438;-80
2022/11/03 03:26:49;;;;;;;16.23;8.27;;;5.10;99.90;;;;;;5090865;28;19911;-80
2022/11/03 03:29:22;;;;;;;14.30;7.75;;;5.10;99.90;;;;;;5090293;28;20035;-80
2022/11/03 03:31:54;;;;;;;13.77;7.20;;;5.10;99.90;;;;;;5091200;28;20031;-80
2022/11/03 03:34:22;;;;;;;17.67;8.00;;;5.00;99.90;;;;;;5069092;28;20024;-82
2022/11/03 03:36:49;;;;;;;11.32;6.35;;;5.00;99.90;;;;;;5093168;28;20048;-79
2022/11/03 03:39:18;;;;;;;24.98;8.05;;;4.90;99.90;;;;;;5093711;28;20027;-78
2022/11/03 03:41:47;;;;;;;15.45;7.88;;;4.90;99.90;;;;;;5094756;28;20031;-81
2022/11/03 03:44:13;;;;;;;14.98;8.00;;;4.90;99.90;;;;;;5075824;28;20491;-79
2022/11/03 03:47:00;;;;;;;16.08;8.10;;;4.90;99.90;;;;;;5076576;28;20027;-81
2022/11/03 03:49:25;;;;;;;16.45;7.90;;;4.90;99.90;;;;;;5091733;28;20583;-78
2022/11/03 03:51:51;;;;;;;16.95;7.95;;;4.80;99.90;;;;;;5089451;28;20028;-79
2022/11/03 03:54:17;;;;;;;14.38;7.93;;;4.80;99.90;;;;;;5076845;28;20111;-80
2022/11/03 03:57:05;;;;;;;19.95;9.27;;;4.70;99.90;;;;;;5084565;28;20036;-77
2022/11/03 03:59:31;;;;;;;20.90;10.05;;;4.70;99.90;;;;;;5095442;28;20032;-80
2022/11/03 04:01:57;;;;;;;14.50;9.10;;;4.70;99.90;;;;;;5096770;28;20485;-82
2022/11/03 04:04:23;;;;;;;16.85;9.27;;;4.60;99.90;;;;;;5095595;28;20024;-78
2022/11/03 04:07:45;;;;;;;17.25;9.43;;;4.60;99.90;;;;;;5090637;28;20035;-80
2022/11/03 04:09:34;;;;;;;23.42;9.43;;;4.60;99.90;;;;;;5092887;28;20084;-81
2022/11/03 04:22:57;;;;;;;22.23;9.20;;;4.80;99.90;;;;;;5090872;28;20066;-81
2022/11/03 04:25:22;;;;;;;21.38;10.25;;;4.80;99.90;;;;;;5092096;28;20563;-78
2022/11/03 04:27:48;;;;;;;25.73;10.43;;;4.80;99.90;;;;;;5094099;28;20028;-76
2022/11/03 04:30:15;;;;;;;27.85;10.23;;;4.90;99.90;;;;;;5094731;28;20028;-77
2022/11/03 04:32:45;;;;;;;16.67;9.00;;;4.80;99.90;;;;;;5094751;28;20028;-76
2022/11/03 04:35:24;;;;;;;;;;;4.80;99.90;;;;;;5094526;28;20055;-80
2022/11/03 04:37:56;;;;;;;16.88;8.68;;;4.80;99.90;;;;;;5095113;28;19918;-80
2022/11/03 04:40:22;;;;;;;18.27;8.88;;;4.80;99.90;;;;;;5094079;28;20032;-80
2022/11/03 04:42:48;;;;;;;17.88;9.18;;;4.70;99.90;;;;;;5092280;28;20036;-85
2022/11/03 04:45:34;;;;;;;20.27;9.48;;;4.70;99.90;;;;;;5076645;28;20032;-78
2022/11/03 04:48:08;;;;;;;12.98;8.00;;;4.70;99.90;;;;;;5074347;28;20036;-78
2022/11/03 04:50:34;;;;;;;14.35;8.35;;;4.60;99.90;;;;;;5076893;28;20059;-80
2022/11/03 04:52:59;;;;;;;22.50;10.55;;;4.60;99.90;;;;;;5077095;28;20059;-79
2022/11/03 04:55:25;;;;;;;19.92;10.40;;;4.60;99.90;;;;;;5094158;28;20088;-80
2022/11/03 04:57:59;;;;;;;17.98;9.10;;;4.60;99.90;;;;;;5090957;28;20083;-81
2022/11/03 05:00:24;;;;;;;21.50;9.63;;;4.60;99.90;;;;;;5097670;28;20066;-84
2022/11/03 05:02:50;;;;;;;20.95;9.07;;;4.60;99.90;;;;;;5103999;28;20058;-78
2022/11/03 05:05:22;;;;;;;18.25;9.18;;;4.60;99.90;;;;;;5077338;28;20024;-79
2022/11/03 05:07:50;;;;;;;19.10;9.40;;;4.60;99.90;;;;;;5103407;28;20111;-80
2022/11/03 05:10:18;;;;;;;14.10;8.95;;;4.60;99.90;;;;;;5101820;28;20036;-82
2022/11/03 05:12:45;;;;;;;19.27;9.85;;;4.50;99.90;;;;;;5085334;28;20035;-82
2022/11/03 05:15:26;;;;;;;22.20;9.07;;;4.50;99.90;;;;;;5096451;28;20119;-82
2022/11/03 05:17:52;;;;;;;15.38;9.20;;;4.50;99.90;;;;;;5097114;28;20039;-78
2022/11/03 05:20:25;;;;;;;14.32;8.95;;;4.60;99.90;;;;;;5100670;28;20103;-80
2022/11/03 05:22:51;;;;;;;16.08;10.00;;;4.60;99.90;;;;;;5098518;28;20034;-76
2022/11/03 05:25:39;;;;;;;23.73;9.75;;;4.60;99.90;;;;;;5093524;28;20381;-80
2022/11/03 05:28:19;;;;;;;19.92;9.35;;;4.50;99.90;;;;;;5089441;28;20024;-84
2022/11/03 05:30:46;;;;;;;24.80;10.17;;;4.50;99.90;;;;;;5082594;28;20016;-81
2022/11/03 05:33:33;;;;;;;20.52;9.15;;;4.50;99.90;;;;;;5072947;28;20028;-81
2022/11/03 05:36:04;;;;;;;17.10;9.40;;;4.50;99.90;;;;;;5092825;28;20079;-81
2022/11/03 05:38:32;;;;;;;20.20;10.45;;;4.50;99.90;;;;;;5090385;28;20032;-82
2022/11/03 05:40:58;;;;;;;17.05;9.90;;;4.40;99.90;;;;;;5083162;28;20028;-81
2022/11/03 05:43:26;;;;;;;20.05;10.52;;;4.40;99.90;;;;;;5074900;28;20651;-79
2022/11/03 05:45:56;;;;;;;19.50;10.55;;;4.40;99.90;;;;;;5093373;28;20023;-81
2022/11/03 05:48:35;;;;;;;25.23;11.10;;;4.40;99.90;;;;;;5092429;28;20507;-80
2022/11/03 05:51:20;;;;;;;21.88;11.00;;;4.40;99.90;;;;;;5090347;28;21248;-81
2022/11/03 05:53:47;;;;;;;21.42;9.93;;;4.40;99.90;;;;;;5092484;28;20027;-81
2022/11/03 05:56:20;;;;;;;23.98;10.93;;;4.40;99.90;;;;;;5073660;28;20047;-81
2022/11/03 05:58:48;;;;;;;20.98;9.93;;;4.40;99.90;;;;;;5092884;28;20089;-80
2022/11/03 06:01:34;;;;;;;16.27;9.98;;;4.40;99.90;;;;;;5073599;28;20028;-81
2022/11/03 06:04:25;;;;;;;23.02;10.88;;;4.40;99.90;;;;;;5074736;28;20024;-81
2022/11/03 06:07:28;;;;;;;19.48;9.68;;;4.40;99.90;;;;;;5093092;28;20096;-79
2022/11/03 06:09:54;;;;;;;21.38;9.10;;;4.30;99.90;;;;;;5089958;28;20047;-79
2022/11/03 06:12:21;;;;;;;22.15;11.20;;;4.30;99.90;;;;;;5074338;28;20032;-79
2022/11/03 06:14:47;;;;;;;20.42;10.38;;;4.30;99.90;;;;;;5092359;28;20103;-80
2022/11/03 06:17:23;;;;;;;21.13;11.13;;;4.30;99.90;;;;;;5091830;28;20031;-80
2022/11/03 06:19:53;;;;;;;29.13;11.40;;;4.30;99.90;;;;;;5092440;28;20419;-80
2022/11/03 06:22:23;;;;;;;22.65;10.40;;;4.30;99.90;;;;;;5070943;28;20027;-80
2022/11/03 06:24:49;;;;;;;19.40;9.55;;;4.30;99.90;;;;;;5074187;28;20430;-81
2022/11/03 06:27:22;;;;;;;18.75;9.98;;;4.30;99.90;;;;;;5087037;28;20107;-81
2022/11/03 06:30:10;;;;;;;18.90;10.45;;;4.20;99.90;;;;;;5091919;28;20602;-81
2022/11/03 06:32:36;;;;;;;19.20;10.07;;;4.20;99.90;;;;;;5067489;28;20115;-82
2022/11/03 06:35:02;;;;;;;28.15;11.68;;;4.20;99.90;;;;;;5086444;28;20173;-84
2022/11/03 06:37:31;;;;;;;30.38;12.80;;;4.30;99.90;;;;;;5092280;28;20107;-81
2022/11/03 06:40:09;;;;;;;25.00;12.88;;;4.30;99.90;;;;;;5091799;28;20084;-80
2022/11/03 06:42:35;;;;;;;27.15;12.07;;;4.40;99.90;;;;;;5092342;28;20032;-80
2022/11/03 06:45:11;;;;;;;23.95;13.13;;;4.40;99.90;;;;;;5091924;28;20031;-80
2022/11/03 06:47:39;;;;;;;30.25;12.32;;;4.50;99.90;;;;;;5072774;28;20032;-81
2022/11/03 06:50:23;;;;;;;31.75;13.73;;;4.60;99.90;;;;;;5059073;28;20032;-84
2022/11/03 06:52:50;;;;;;;27.20;13.13;;;4.70;99.90;;;;;;5092034;28;20031;-79
2022/11/03 06:55:34;;;;;;;33.28;16.35;;;4.80;99.90;;;;;;5072689;28;20016;-80
2022/11/03 06:58:27;;;;;;;27.20;14.02;;;4.80;99.90;;;;;;5073924;28;20036;-80
2022/11/03 07:00:56;;;;;;;22.75;13.70;;;4.90;99.90;;;;;;5073239;28;20145;-81
2022/11/03 07:03:22;;;;;;;30.85;14.73;;;4.90;99.90;;;;;;5091583;28;20061;-79
2022/11/03 07:05:47;;;;;;;31.92;14.05;;;4.90;99.90;;;;;;5073047;28;20028;-80
2022/11/03 07:08:29;;;;;;;30.98;15.70;;;4.90;99.90;;;;;;5088000;28;20493;-80
2022/11/03 07:11:14;;;;;;;31.60;15.40;;;5.00;99.90;;;;;;5072294;28;20035;-81
2022/11/03 07:13:40;;;;;;;32.25;15.18;;;5.10;99.90;;;;;;5091734;28;20491;-80
2022/11/03 07:16:17;;;;;;;26.88;15.80;;;5.10;99.90;;;;;;5072437;28;20027;-79
2022/11/03 07:18:44;;;;;;;32.38;16.77;;;5.20;99.90;;;;;;5092598;28;20457;-80
2022/11/03 07:21:30;;;;;;;32.17;17.10;;;5.30;99.90;;;;;;5070275;28;20024;-78
2022/11/03 07:23:58;;;;;;;28.27;15.43;;;5.50;99.90;;;;;;5090719;28;20028;-81
2022/11/03 07:26:25;;;;;;;25.73;14.02;;;5.60;99.90;;;;;;5072574;28;20618;-81
2022/11/03 07:28:51;;;;;;;24.42;12.95;;;5.70;99.90;;;;;;5073818;28;20028;-83
2022/11/03 07:31:24;;;;;;;26.80;13.68;;;5.80;99.90;;;;;;5090632;28;20031;-77
2022/11/03 07:33:56;;;;;;;22.27;11.48;;;5.80;99.90;;;;;;5092466;28;20377;-76
2022/11/03 07:36:24;;;;;;;19.23;11.93;;;6.00;99.90;;;;;;5076055;28;20048;-78
2022/11/03 07:38:52;;;;;;;20.25;11.38;;;6.00;99.90;;;;;;5092292;28;20063;-78
2022/11/03 07:41:21;;;;;;;20.10;11.15;;;6.10;99.90;;;;;;5069459;28;20024;-77
2022/11/03 07:43:58;;;;;;;21.23;11.65;;;6.20;99.90;;;;;;5079892;28;20032;-78
2022/11/03 07:46:25;;;;;;;42.28;13.30;;;6.30;99.90;;;;;;5091280;28;20032;-78
2022/11/03 07:48:57;;;;;;;29.13;12.48;;;6.50;99.90;;;;;;5075352;28;20024;-80
2022/11/03 07:51:43;;;;;;;27.52;13.05;;;6.60;99.90;;;;;;5082403;28;20111;-81
2022/11/03 07:54:14;;;;;;;21.98;11.55;;;6.70;99.90;;;;;;5080318;28;20048;-79
2022/11/03 07:56:43;;;;;;;21.60;11.77;;;6.80;99.90;;;;;;5067547;28;20036;-79
2022/11/03 07:59:12;;;;;;;21.60;10.70;;;7.00;99.90;;;;;;5085226;28;20518;-79
2022/11/03 08:01:49;;;;;;;15.82;9.48;;;7.10;99.90;;;;;;5099880;28;20020;-78
2022/11/03 08:04:27;;;;;;;19.23;9.65;;;7.20;99.90;;;;;;5100351;28;20028;-79
2022/11/03 08:06:53;;;;;;;19.17;8.70;;;7.40;99.90;;;;;;5103763;28;20028;-79
2022/11/03 08:09:19;;;;;;;15.50;9.23;;;7.50;99.90;;;;;;5094597;28;20055;-80
2022/11/03 08:11:45;;;;;;;21.27;9.45;;;7.70;99.90;;;;;;5099633;28;20031;-81
2022/11/03 08:14:11;;;;;;;17.60;8.45;;;7.90;99.90;;;;;;5080275;28;20024;-79
2022/11/03 08:16:37;;;;;;;17.55;7.75;;;8.00;99.90;;;;;;5091811;28;20032;-79
2022/11/03 08:19:03;;;;;;;14.63;7.00;;;8.10;99.90;;;;;;5073146;28;20034;-81
2022/11/03 08:21:29;;;;;;;15.98;8.05;;;8.10;99.90;;;;;;5090191;28;20028;-79
2022/11/03 08:23:54;;;;;;;15.35;8.25;;;8.20;99.90;;;;;;5094474;28;20085;-79
2022/11/03 08:26:20;;;;;;;20.13;8.05;;;8.30;99.90;;;;;;5093553;28;20050;-78
2022/11/03 08:28:46;;;;;;;14.55;7.05;;;8.40;99.90;;;;;;5095150;28;20024;-78
2022/11/03 08:31:12;;;;;;;12.18;6.82;;;8.50;99.90;;;;;;5092054;28;20427;-77
2022/11/03 08:33:37;;;;;;;14.75;7.78;;;8.50;99.90;;;;;;5091768;28;20024;-78
2022/11/03 08:36:04;;;;;;;10.52;7.05;;;8.60;99.90;;;;;;5102337;28;20439;-79
2022/11/03 08:38:30;;;;;;;11.05;6.53;;;8.60;99.90;;;;;;5103946;28;20373;-79
2022/11/03 08:40:57;;;;;;;17.83;7.45;;;8.60;99.90;;;;;;5098888;28;20032;-79
2022/11/03 08:43:23;;;;;;;12.35;7.70;;;8.60;99.90;;;;;;5086239;28;20200;-79
2022/11/03 08:45:52;;;;;;;15.60;7.82;;;8.70;99.90;;;;;;5081463;28;20020;-80
2022/11/03 08:48:22;;;;;;;12.83;6.93;;;8.70;99.90;;;;;;5104021;28;20024;-80
2022/11/03 08:50:53;;;;;;;10.10;6.60;;;8.80;99.90;;;;;;5078991;28;20020;-80
2022/11/03 08:53:19;;;;;;;11.30;6.60;;;9.00;99.90;;;;;;5103363;28;20032;-80
2022/11/03 08:55:44;;;;;;;13.52;6.97;;;9.00;99.90;;;;;;5098308;28;20024;-80
2022/11/03 08:58:10;;;;;;;17.52;6.32;;;9.20;99.90;;;;;;5104285;28;20072;-81
2022/11/03 09:00:36;;;;;;;12.55;6.63;;;9.30;99.90;;;;;;5100937;28;20028;-80
2022/11/03 09:03:01;;;;;;;12.35;6.95;;;9.40;99.90;;;;;;5103462;28;20023;-83
2022/11/03 09:05:27;;;;;;;12.15;5.97;;;9.50;99.90;;;;;;5101046;28;20024;-80
2022/11/03 09:07:53;;;;;;;15.10;5.93;;;9.70;99.90;;;;;;5085132;28;20025;-80
2022/11/03 09:10:19;;;;;;;15.30;6.70;;;9.70;99.90;;;;;;5101587;28;20035;-79
2022/11/03 09:12:44;;;;;;;14.52;7.00;;;9.80;99.90;;;;;;5093754;28;20473;-79
2022/11/03 09:15:10;;;;;;;11.93;6.60;;;9.90;99.90;;;;;;5092740;28;20028;-79
2022/11/03 09:17:36;;;;;;;11.65;6.95;;;9.90;99.90;;;;;;5075183;28;20059;-79
2022/11/03 09:20:03;;;;;;;16.42;7.80;;;10.00;99.90;;;;;;5093361;28;20035;-83
2022/11/03 09:22:28;;;;;;;15.77;7.70;;;10.20;99.90;;;;;;5086507;28;20032;-79
2022/11/03 09:24:54;;;;;;;18.58;7.78;;;10.30;99.90;;;;;;5083443;28;20028;-79
2022/11/03 09:27:20;;;;;;;18.45;8.10;;;10.40;99.90;;;;;;5084456;28;20116;-80
2022/11/03 09:29:45;;;;;;;13.30;6.78;;;10.60;99.90;;;;;;5074018;28;20115;-80
2022/11/03 09:32:11;;;;;;;12.50;7.00;;;10.80;99.90;;;;;;5079111;28;20442;-79
2022/11/03 09:34:36;;;;;;;16.08;7.63;;;10.90;99.90;;;;;;5092286;28;20522;-78
2022/11/03 09:37:02;;;;;;;13.05;6.85;;;11.00;99.90;;;;;;5092292;28;20079;-80
2022/11/03 09:39:28;;;;;;;14.15;6.80;;;11.10;99.90;;;;;;5088281;28;20103;-79
2022/11/03 09:41:56;;;;;;;16.17;6.53;;;11.20;99.90;;;;;;5092962;28;20077;-79
2022/11/03 09:44:22;;;;;;;11.43;6.05;;;11.30;99.90;;;;;;5092655;28;20107;-80
2022/11/03 09:46:49;;;;;;;13.48;6.45;;;11.30;99.90;;;;;;5093455;28;20120;-79
2022/11/03 09:49:17;;;;;;;12.82;6.20;;;11.30;99.90;;;;;;5074073;28;20051;-80
2022/11/03 09:51:43;;;;;;;13.43;6.07;;;11.40;99.90;;;;;;5091890;28;20032;-80
2022/11/03 09:54:12;;;;;;;16.65;5.70;;;11.50;99.90;;;;;;5091683;28;20499;-79
2022/11/03 09:56:38;;;;;;;12.73;7.28;;;11.60;99.90;;;;;;5093429;28;20042;-81
2022/11/03 09:59:16;;;;;;;17.20;8.32;;;11.70;99.90;;;;;;5092701;28;20032;-81
2022/11/03 10:01:44;;;;;;;16.00;7.25;;;11.80;99.90;;;;;;5093209;28;20461;-79
2022/11/03 10:04:11;;;;;;;14.48;7.22;;;11.90;99.90;;;;;;5091401;28;20501;-79
2022/11/03 10:06:38;;;;;;;14.40;6.63;;;11.90;99.90;;;;;;5092286;28;20035;-79
2022/11/03 10:09:06;;;;;;;17.38;7.00;;;12.00;99.90;;;;;;5091586;28;20549;-81
2022/11/03 10:11:33;;;;;;;13.40;6.68;;;12.10;99.90;;;;;;5092575;28;20020;-79
2022/11/03 10:13:59;;;;;;;15.55;5.78;;;12.10;99.90;;;;;;5092560;28;20039;-78
2022/11/03 10:16:25;;;;;;;13.20;5.70;;;12.20;99.90;;;;;;5072959;28;20076;-79
2022/11/03 10:18:52;;;;;;;16.20;5.22;;;12.20;99.90;;;;;;5092586;28;20445;-79
2022/11/03 10:21:27;;;;;;;10.45;4.45;;;12.20;99.90;;;;;;5079827;28;20028;-79
2022/11/03 10:23:52;;;;;;;14.80;5.32;;;12.30;99.90;;;;;;5089955;28;20032;-80
2022/11/03 10:26:19;;;;;;;8.10;4.72;;;12.40;99.90;;;;;;5097323;28;20020;-79
2022/11/03 10:29:07;;;;;;;11.32;6.60;;;12.50;99.90;;;;;;5099807;28;20024;-78
2022/11/03 10:31:37;;;;;;;11.45;5.97;;;12.60;99.90;;;;;;5087099;28;20036;-78
2022/11/03 10:34:03;;;;;;;8.23;4.80;;;12.70;99.90;;;;;;5092031;28;20020;-81
2022/11/03 10:36:30;;;;;;;11.43;4.30;;;12.80;99.90;;;;;;5086151;28;20048;-80
2022/11/03 10:38:57;;;;;;;8.73;4.55;;;12.90;99.90;;;;;;5085448;28;20024;-79
2022/11/03 10:41:25;;;;;;;8.77;4.53;;;12.90;99.90;;;;;;5072313;28;20024;-80
2022/11/03 10:44:01;;;;;;;10.13;4.20;;;12.90;99.90;;;;;;5092133;28;20504;-81
2022/11/03 10:46:27;;;;;;;8.15;4.20;;;13.00;99.90;;;;;;5091349;28;20162;-80
2022/11/03 10:49:13;;;;;;;8.18;3.85;;;13.00;99.90;;;;;;5086398;28;20444;-80
2022/11/03 10:51:41;;;;;;;13.45;4.72;;;13.00;99.90;;;;;;5091754;28;20028;-79
2022/11/03 10:54:14;;;;;;;13.68;7.80;;;13.10;99.90;;;;;;5090892;28;20032;-81
2022/11/03 10:56:40;;;;;;;11.40;5.35;;;13.20;99.90;;;;;;5091798;28;20458;-78
2022/11/03 10:59:11;;;;;;;10.07;5.72;;;13.30;99.90;;;;;;5090677;28;20103;-81
2022/11/03 11:01:36;;;;;;;10.35;5.65;;;13.40;99.90;;;;;;5060548;28;20032;-78
2022/11/03 11:04:03;;;;;;;10.35;5.25;;;13.40;99.90;;;;;;5091122;28;20038;-79
2022/11/03 11:06:30;;;;;;;11.23;5.93;;;13.40;99.90;;;;;;5091266;28;20040;-78
2022/11/03 11:09:04;;;;;;;15.18;6.32;;;13.40;99.90;;;;;;5091972;28;20477;-78
2022/11/03 11:11:30;;;;;;;10.93;5.63;;;13.40;99.90;;;;;;5073014;28;20051;-79
2022/11/03 11:14:27;;;;;;;10.35;5.60;;;13.40;99.90;;;;;;5091015;28;20103;-79
2022/11/03 11:16:59;;;;;;;14.75;5.20;;;13.40;99.90;;;;;;5090082;28;20039;-79
2022/11/03 11:19:26;;;;;;;14.50;5.75;;;13.40;99.90;;;;;;5090741;28;20017;-79
2022/11/03 11:21:52;;;;;;;13.90;6.03;;;13.40;99.90;;;;;;5087924;28;20078;-78
2022/11/03 11:24:42;;;;;;;16.05;5.57;;;13.40;99.90;;;;;;5083920;28;20404;-78
2022/11/03 11:27:30;;;;;;;12.82;5.80;;;13.40;99.90;;;;;;5072649;28;20490;-79
2022/11/03 11:30:04;;;;;;;8.98;4.82;;;13.50;99.90;;;;;;5090811;28;20021;-78
2022/11/03 11:32:57;;;;;;;10.50;5.40;;;13.40;99.90;;;;;;5090769;28;20017;-79
2022/11/03 11:35:23;;;;;;;12.48;5.20;;;13.50;99.90;;;;;;5079916;28;20036;-81
2022/11/03 11:37:49;;;;;;;14.90;5.40;;;13.50;99.90;;;;;;5091611;28;20043;-77
2022/11/03 11:40:24;;;;;;;10.52;4.97;;;13.60;99.90;;;;;;5090942;28;20020;-77
2022/11/03 11:43:02;;;;;;;11.52;5.05;;;13.60;99.90;;;;;;5091134;28;20024;-77
2022/11/03 11:46:06;;;;;;;11.43;4.80;;;13.70;99.90;;;;;;5090152;28;20016;-77
2022/11/03 11:48:32;;;;;;;8.25;4.40;;;13.80;99.90;;;;;;5091137;28;20070;-77
2022/11/03 11:50:59;;;;;;;11.70;4.90;;;13.80;99.90;;;;;;5072318;28;20059;-78
2022/11/03 11:53:26;;;;;;;15.65;5.15;;;13.90;99.90;;;;;;5068025;28;20089;-78
2022/11/03 11:56:00;;;;;;;11.63;5.82;;;13.90;99.90;;;;;;5072584;28;20431;-78
2022/11/03 11:58:43;;;;;;;11.15;5.78;;;13.90;99.90;;;;;;5094451;28;20032;-77
2022/11/03 12:01:21;;;;;;;9.55;5.82;;;13.90;99.90;;;;;;5102608;28;20020;-77
2022/11/03 12:03:47;;;;;;;8.65;3.97;;;13.90;99.90;;;;;;5109036;28;20028;-80
2022/11/03 12:06:13;;;;;;;5.05;2.83;;;13.90;99.90;;;;;;5102100;28;20131;-77
2022/11/03 12:08:39;;;;;;;6.45;3.22;;;13.90;99.90;;;;;;5088981;28;20031;-78
2022/11/03 12:11:06;;;;;;;6.10;3.50;;;13.90;99.90;;;;;;5102212;28;20082;-78
2022/11/03 12:13:51;;;;;;;6.72;3.20;;;14.00;99.90;;;;;;5108385;28;20054;-77
2022/11/03 12:16:36;;;;;;;6.30;3.08;;;14.00;99.90;;;;;;5097854;28;20488;-77
2022/11/03 12:19:40;;;;;;;9.95;3.75;;;14.00;99.90;;;;;;5095140;28;20016;-80
2022/11/03 12:22:26;;;;;;;13.63;4.53;;;14.10;99.90;;;;;;5094943;28;20520;-77
2022/11/03 12:24:57;;;;;;;6.38;3.30;;;14.20;99.90;;;;;;5055842;28;20032;-77
2022/11/03 12:27:25;;;;;;;5.70;3.20;;;14.10;99.90;;;;;;5094812;28;20273;-77
2022/11/03 12:29:55;;;;;;;6.28;3.83;;;14.10;99.90;;;;;;5096678;28;20024;-77
2022/11/03 12:32:22;;;;;;;15.32;5.15;;;14.10;99.90;;;;;;5087026;28;20028;-77
2022/11/03 12:34:48;;;;;;;20.13;5.82;;;14.10;99.90;;;;;;5095322;28;20027;-77
2022/11/03 12:37:14;;;;;;;12.73;5.40;;;14.00;99.90;;;;;;5094906;28;20056;-76
2022/11/03 12:39:39;;;;;;;9.20;4.00;;;13.90;99.90;;;;;;5095481;28;20111;-76
2022/11/03 12:42:06;;;;;;;8.43;4.53;;;13.80;99.90;;;;;;5093865;28;20036;-77
2022/11/03 12:44:32;;;;;;;11.15;4.57;;;13.80;99.90;;;;;;5093333;28;20031;-75
2022/11/03 12:46:57;;;;;;;11.35;4.93;;;13.70;99.90;;;;;;5094374;28;20028;-76
2022/11/03 12:49:23;;;;;;;11.40;5.13;;;13.60;99.90;;;;;;5093269;28;20030;-76
2022/11/03 12:51:49;;;;;;;14.65;5.63;;;13.60;99.90;;;;;;5094242;28;20368;-77
2022/11/03 12:54:14;;;;;;;14.30;5.43;;;13.70;99.90;;;;;;5074022;28;20031;-76
2022/11/03 12:56:40;;;;;;;16.73;5.50;;;13.70;99.90;;;;;;5093746;28;20489;-76
2022/11/03 12:59:06;;;;;;;13.52;6.03;;;13.70;99.90;;;;;;5092839;28;20070;-77
2022/11/03 13:01:32;;;;;;;13.90;5.85;;;13.60;99.90;;;;;;5094160;28;20024;-76
2022/11/03 13:03:58;;;;;;;14.48;5.70;;;13.60;99.90;;;;;;5094234;28;20431;-76
2022/11/03 13:06:24;;;;;;;11.15;5.30;;;13.50;99.90;;;;;;5074701;28;20024;-76
2022/11/03 13:08:50;;;;;;;17.02;5.55;;;13.40;99.90;;;;;;5092756;28;20020;-77
2022/11/03 13:14:00;;;;;;;12.77;5.75;;;13.30;99.90;;;;;;5093348;28;20077;-76
2022/11/03 13:16:26;;;;;;;11.75;5.25;;;13.30;99.90;;;;;;5088876;28;20048;-78
2022/11/03 13:18:51;;;;;;;11.00;4.75;;;13.20;99.90;;;;;;5101466;28;20024;-75